This is the latest recevied weather packets stored in our database for station/object IZ8QAD-12. If no packets are shown the sender has not sent any weather packets the latest 10 day(s).
| Time | Temp. | Humidity | Pressure | Rain* | Wind** | Luminosity | Snow |
|---|---|---|---|---|---|---|---|
| 1777851746 | 8.33° C | 61% | 971.8 hPa | - | - | - | - |
| 1777849046 | 8.33° C | 60% | 972.1 hPa | - | - | - | - |
| 1777846346 | 8.89° C | 58% | 972.3 hPa | - | - | - | - |
| 1777843646 | 10° C | 55% | 972.1 hPa | - | - | - | - |
| 1777840946 | 10.56° C | 54% | 971.9 hPa | - | - | - | - |
| 1777838249 | 11.67° C | 51% | 971.6 hPa | - | - | - | - |
| 1777835549 | 12.22° C | 49% | 971.2 hPa | - | - | - | - |
| 1777832849 | 13.33° C | 44% | 971.1 hPa | - | - | - | - |
| 1777830148 | 15° C | 42% | 970.6 hPa | - | - | - | - |
| 1777827458 | 16.67° C | 38% | 970.7 hPa | - | - | - | - |
| 1777824756 | 18.33° C | 34% | 970.6 hPa | - | - | - | - |
| 1777822049 | 19.44° C | 28% | 970.5 hPa | - | - | - | - |
| 1777819348 | 21.67° C | 24% | 970.3 hPa | - | - | - | - |
| 1777813946 | 43.33° C | 7% | 970.4 hPa | - | - | - | - |
| 1777811246 | 56.67° C | 2% | 970.8 hPa | - | - | - | - |
| 1777808546 | 58.33° C | 1% | 971.3 hPa | - | - | - | - |
| 1777805846 | 57.78° C | 2% | 971.6 hPa | - | - | - | - |
| 1777803145 | 55.56° C | 3% | 972.1 hPa | - | - | - | - |
| 1777800445 | 51.11° C | 6% | 972.6 hPa | - | - | - | - |
| 1777797745 | 46.11° C | 9% | 972.9 hPa | - | - | - | - |
| 1777795044 | 39.44° C | 16% | 973.1 hPa | - | - | - | - |
| 1777792344 | 30° C | 26% | 973.4 hPa | - | - | - | - |
| 1777789644 | 17.22° C | 41% | 973.4 hPa | - | - | - | - |
| 1777786944 | 8.89° C | 54% | 973.5 hPa | - | - | - | - |
| 1777784244 | 3.89° C | 57% | 973.3 hPa | - | - | - | - |
* Rain since midnight (hover to see other rain measurements)
** Current wind speed in m/s (hover to see current wind gust speed)